createdAt,value
2023-04-24T00:02:03.039Z,13.75
2023-04-24T00:04:31.287Z,13.66
2023-04-24T00:07:01.272Z,13.55
2023-04-24T00:09:29.288Z,13.47
2023-04-24T00:11:57.758Z,13.37
2023-04-24T00:14:25.715Z,13.25
2023-04-24T00:16:53.792Z,13.14
2023-04-24T00:19:22.457Z,13.04
2023-04-24T00:21:51.105Z,12.95
2023-04-24T00:24:19.408Z,12.90
2023-04-24T00:26:47.503Z,12.86
2023-04-24T00:29:15.636Z,12.81
2023-04-24T00:31:43.518Z,12.77
2023-04-24T00:34:12.899Z,12.72
2023-04-24T00:36:41.376Z,12.67
2023-04-24T00:39:12.176Z,12.63
2023-04-24T00:41:40.109Z,12.58
2023-04-24T00:44:08.426Z,12.54
2023-04-24T00:46:37.182Z,12.50
2023-04-24T00:49:06.757Z,12.46
2023-04-24T00:51:35.547Z,12.43
2023-04-24T00:54:03.664Z,12.39
2023-04-24T00:56:31.891Z,12.35
2023-04-24T00:59:00.278Z,12.32
2023-04-24T01:01:28.531Z,12.28
2023-04-24T01:03:56.629Z,12.25
2023-04-24T01:06:29.546Z,12.22
2023-04-24T01:08:58.601Z,12.19
2023-04-24T01:11:26.954Z,12.16
2023-04-24T01:13:54.937Z,12.13
2023-04-24T01:16:22.999Z,12.11
2023-04-24T01:18:51.244Z,12.09
2023-04-24T01:21:22.307Z,12.06
2023-04-24T01:23:52.404Z,12.03
2023-04-24T01:26:21.250Z,12.03
2023-04-24T01:28:49.650Z,12.02
2023-04-24T01:31:17.786Z,12.03
2023-04-24T01:33:46.480Z,12.02
2023-04-24T01:36:15.320Z,12.01
2023-04-24T01:38:43.541Z,11.99
2023-04-24T01:41:11.586Z,11.97
2023-04-24T01:43:39.608Z,11.95
2023-04-24T01:46:08.080Z,11.92
2023-04-24T01:48:37.853Z,11.90
2023-04-24T01:51:05.970Z,11.89
2023-04-24T01:53:34.076Z,11.86
2023-04-24T01:56:02.677Z,11.86
2023-04-24T01:58:31.288Z,11.85
2023-04-24T02:01:00.299Z,11.84
2023-04-24T02:03:28.579Z,11.84
2023-04-24T02:05:57.322Z,11.83
2023-04-24T02:08:26.147Z,11.83
2023-04-24T02:10:54.036Z,11.83
2023-04-24T02:13:22.011Z,11.84
2023-04-24T02:15:49.913Z,11.82
2023-04-24T02:18:17.937Z,11.78
2023-04-24T02:20:46.222Z,11.77
2023-04-24T02:23:14.689Z,11.76
2023-04-24T02:25:42.625Z,11.77
2023-04-24T02:28:10.659Z,11.80
2023-04-24T02:30:38.818Z,11.82
2023-04-24T02:33:07.122Z,11.86
2023-04-24T02:35:35.800Z,11.90
2023-04-24T02:38:04.216Z,11.95
2023-04-24T02:40:32.873Z,11.98
2023-04-24T02:43:00.917Z,12.01
2023-04-24T02:45:28.973Z,12.00
2023-04-24T02:47:56.942Z,12.02
2023-04-24T02:50:24.951Z,12.04
2023-04-24T02:52:52.869Z,12.06
2023-04-24T02:55:20.996Z,12.08
2023-04-24T02:57:49.006Z,12.11
2023-04-24T03:00:17.460Z,12.13
2023-04-24T03:02:46.663Z,12.16
2023-04-24T03:05:14.842Z,12.19
2023-04-24T03:07:42.834Z,12.22
2023-04-24T03:10:10.965Z,12.25
2023-04-24T03:12:38.854Z,12.27
2023-04-24T03:15:07.628Z,12.29
2023-04-24T03:17:38.861Z,12.33
2023-04-24T03:20:09.130Z,12.36
2023-04-24T03:22:37.661Z,12.39
2023-04-24T03:25:10.485Z,12.41
2023-04-24T03:27:38.808Z,12.43
2023-04-24T03:30:14.051Z,12.44
2023-04-24T03:32:46.380Z,12.43
2023-04-24T03:35:16.097Z,12.45
2023-04-24T03:37:44.831Z,12.45
2023-04-24T03:40:35.610Z,12.47
2023-04-24T03:43:04.325Z,12.48
2023-04-24T03:45:32.419Z,12.50
2023-04-24T03:48:00.651Z,12.52
2023-04-24T03:50:30.192Z,12.54
2023-04-24T03:52:58.949Z,12.56
2023-04-24T03:55:36.173Z,12.59
2023-04-24T03:58:04.367Z,12.64
2023-04-24T04:00:33.247Z,12.70
2023-04-24T04:03:22.032Z,12.79
2023-04-24T04:05:50.914Z,12.87
2023-04-24T04:08:18.883Z,12.97
2023-04-24T04:10:46.858Z,13.11
2023-04-24T04:13:14.915Z,13.29
2023-04-24T04:15:43.190Z,13.48
2023-04-24T04:18:11.283Z,13.68
2023-04-24T04:20:39.368Z,13.85
2023-04-24T04:23:07.436Z,14.03
2023-04-24T04:25:48.137Z,14.16
2023-04-24T04:28:16.940Z,14.23
2023-04-24T04:30:44.986Z,14.28
2023-04-24T04:33:13.214Z,14.31
2023-04-24T04:35:42.188Z,14.33
2023-04-24T04:38:11.961Z,14.35
2023-04-24T04:40:45.623Z,14.36
2023-04-24T04:43:17.092Z,14.38
2023-04-24T04:45:50.501Z,14.37
2023-04-24T04:48:26.672Z,14.36
2023-04-24T04:50:54.749Z,14.46
2023-04-24T04:53:23.053Z,14.64
2023-04-24T04:55:51.044Z,14.78
2023-04-24T04:58:21.009Z,14.91
2023-04-24T05:00:51.949Z,14.98
2023-04-24T05:03:29.764Z,14.92
2023-04-24T05:06:10.586Z,14.84
2023-04-24T05:08:40.831Z,14.76
2023-04-24T05:11:11.476Z,14.70
2023-04-24T05:13:41.362Z,14.65
2023-04-24T05:16:21.318Z,14.60
2023-04-24T05:18:49.999Z,14.54
2023-04-24T05:21:20.451Z,14.45
2023-04-24T05:23:51.288Z,14.39
2023-04-24T05:26:26.792Z,14.35
2023-04-24T05:28:55.428Z,14.34
2023-04-24T05:31:23.468Z,14.36
2023-04-24T05:33:51.424Z,14.32
2023-04-24T05:36:19.857Z,14.28
2023-04-24T05:38:48.014Z,14.25
2023-04-24T05:41:16.403Z,14.21
2023-04-24T05:43:44.260Z,14.18
2023-04-24T05:46:13.139Z,14.18
2023-04-24T05:48:41.228Z,14.19
2023-04-24T05:51:11.223Z,14.18
2023-04-24T05:53:39.252Z,14.17
2023-04-24T05:56:07.266Z,14.17
2023-04-24T05:58:38.394Z,14.16
2023-04-24T06:01:06.598Z,14.17
2023-04-24T06:03:35.588Z,14.17
2023-04-24T06:06:05.046Z,14.20
2023-04-24T06:08:34.658Z,14.22
2023-04-24T06:11:04.843Z,14.23
2023-04-24T06:13:33.596Z,14.27
2023-04-24T06:16:20.425Z,14.31
2023-04-24T06:18:53.847Z,14.33
2023-04-24T06:21:21.957Z,14.37
2023-04-24T06:23:50.801Z,14.40
2023-04-24T06:26:18.716Z,14.45
2023-04-24T06:28:46.755Z,14.49
2023-04-24T06:31:14.684Z,14.51
2023-04-24T06:33:42.620Z,14.52
2023-04-24T06:36:11.659Z,14.56
2023-04-24T06:38:40.552Z,14.60
2023-04-24T06:41:08.672Z,14.64
2023-04-24T06:43:36.806Z,14.70
2023-04-24T06:46:04.889Z,14.77
2023-04-24T06:48:32.924Z,14.85
2023-04-24T06:51:00.979Z,14.97
2023-04-24T06:53:29.041Z,15.09
2023-04-24T06:55:57.004Z,15.19
2023-04-24T06:58:26.509Z,15.31
2023-04-24T07:00:54.494Z,15.41
2023-04-24T07:03:22.849Z,15.48
2023-04-24T07:05:50.925Z,15.51
2023-04-24T07:08:19.175Z,15.56
2023-04-24T07:10:47.200Z,15.58
2023-04-24T07:13:15.083Z,15.61
2023-04-24T07:15:43.059Z,15.62
2023-04-24T07:18:11.497Z,15.68
2023-04-24T07:20:39.782Z,15.79
2023-04-24T07:23:07.808Z,15.86
2023-04-24T07:25:35.767Z,15.95
2023-04-24T07:28:04.195Z,16.10
2023-04-24T07:30:33.931Z,16.18
2023-04-24T07:33:01.941Z,16.23
2023-04-24T07:35:30.074Z,16.32
2023-04-24T07:37:58.482Z,16.40
2023-04-24T07:40:26.472Z,16.52
2023-04-24T07:42:54.449Z,16.53
2023-04-24T07:45:24.097Z,16.54
2023-04-24T07:47:52.237Z,16.54
2023-04-24T07:50:20.346Z,16.57
2023-04-24T07:52:48.699Z,16.64
2023-04-24T07:55:16.670Z,16.73
2023-04-24T07:57:44.752Z,16.86
2023-04-24T08:00:13.241Z,17.02
2023-04-24T08:02:41.371Z,17.18
2023-04-24T08:05:10.045Z,17.37
2023-04-24T08:07:39.399Z,17.58
2023-04-24T08:10:08.185Z,17.78
2023-04-24T08:12:36.195Z,17.96
2023-04-24T08:15:04.633Z,18.11
2023-04-24T08:17:32.575Z,18.28
2023-04-24T08:20:02.690Z,18.47
2023-04-24T08:22:31.010Z,18.66
2023-04-24T08:25:01.106Z,18.81
2023-04-24T08:27:29.073Z,18.94
2023-04-24T08:29:58.321Z,19.05
2023-04-24T08:32:28.839Z,19.15
2023-04-24T08:35:00.885Z,19.21
2023-04-24T08:37:28.791Z,19.20
2023-04-24T08:39:56.916Z,19.28
2023-04-24T08:42:25.351Z,19.39
2023-04-24T08:44:53.374Z,19.49
2023-04-24T08:47:22.933Z,19.62
2023-04-24T08:49:51.649Z,19.73
2023-04-24T08:52:20.714Z,19.81
2023-04-24T08:54:49.145Z,19.78
2023-04-24T08:57:17.812Z,19.60
2023-04-24T08:59:46.663Z,19.59
2023-04-24T09:02:16.086Z,19.55
2023-04-24T09:04:45.545Z,19.45
2023-04-24T09:07:15.801Z,19.34
2023-04-24T09:09:44.666Z,19.25
2023-04-24T09:12:12.982Z,19.06
2023-04-24T09:14:43.731Z,18.93
2023-04-24T09:17:12.819Z,18.88
2023-04-24T09:19:41.725Z,18.85
2023-04-24T09:22:10.620Z,18.89
2023-04-24T09:24:39.615Z,18.89
2023-04-24T09:27:10.059Z,18.89
2023-04-24T09:29:39.171Z,18.88
2023-04-24T09:32:22.956Z,18.88
2023-04-24T09:35:07.903Z,18.95
2023-04-24T09:37:49.900Z,19.06
2023-04-24T09:40:19.717Z,19.18
2023-04-24T09:42:53.931Z,19.28
2023-04-24T09:45:22.040Z,19.41
2023-04-24T09:47:56.741Z,19.51
2023-04-24T09:50:24.753Z,19.60
2023-04-24T09:53:00.739Z,19.64
2023-04-24T09:55:29.119Z,19.64
2023-04-24T09:58:01.175Z,19.62
2023-04-24T10:00:30.959Z,19.63
2023-04-24T10:02:59.509Z,19.65
2023-04-24T10:05:33.415Z,19.66
2023-04-24T10:08:06.707Z,19.66
2023-04-24T10:10:39.235Z,19.65
2023-04-24T10:13:08.499Z,19.66
2023-04-24T10:15:36.820Z,19.66
2023-04-24T10:18:08.052Z,19.61
2023-04-24T10:20:38.332Z,19.62
2023-04-24T10:23:06.826Z,19.58
2023-04-24T10:25:37.637Z,19.44
2023-04-24T10:28:07.731Z,19.38
2023-04-24T10:30:37.124Z,19.42
2023-04-24T10:33:07.834Z,19.44
2023-04-24T10:35:40.376Z,19.46
2023-04-24T10:38:12.321Z,19.46
2023-04-24T10:40:40.589Z,19.39
2023-04-24T10:43:11.844Z,19.26
2023-04-24T10:45:40.078Z,19.15
2023-04-24T10:48:14.753Z,19.09
2023-04-24T10:50:53.410Z,19.05
2023-04-24T10:53:27.923Z,19.05
2023-04-24T10:56:07.641Z,19.04
2023-04-24T10:58:50.092Z,19.01
2023-04-24T11:01:27.336Z,19.01
2023-04-24T11:04:00.524Z,18.98
2023-04-24T11:06:36.856Z,18.88
2023-04-24T11:09:08.917Z,18.75
2023-04-24T11:11:38.601Z,18.67
2023-04-24T11:14:08.427Z,18.59
2023-04-24T11:16:42.459Z,18.50
2023-04-24T11:19:19.998Z,18.36
2023-04-24T11:21:56.683Z,18.22
2023-04-24T11:24:29.950Z,18.12
2023-04-24T11:27:12.890Z,18.03
2023-04-24T11:40:42.870Z,17.56
2023-04-24T11:43:11.626Z,17.48
2023-04-24T11:45:49.879Z,17.53
2023-04-24T11:48:23.703Z,17.47
2023-04-24T11:50:52.223Z,17.31
2023-04-24T11:53:22.666Z,17.22
2023-04-24T11:55:50.680Z,17.13
2023-04-24T11:58:22.937Z,17.03
2023-04-24T12:00:58.855Z,16.94
2023-04-24T12:03:26.997Z,16.81
2023-04-24T12:06:07.416Z,16.71
2023-04-24T12:08:37.255Z,16.58
2023-04-24T12:11:10.379Z,16.44
2023-04-24T12:13:38.374Z,16.33
2023-04-24T12:16:06.707Z,16.26
2023-04-24T12:18:34.811Z,16.22
2023-04-24T12:21:23.837Z,16.15
2023-04-24T12:23:52.054Z,16.09
2023-04-24T12:26:20.979Z,16.05
2023-04-24T12:28:50.711Z,16.01
2023-04-24T12:31:18.870Z,15.98
2023-04-24T12:33:46.867Z,15.92
2023-04-24T12:36:14.791Z,15.86
2023-04-24T12:38:47.348Z,15.80
2023-04-24T12:41:15.922Z,15.75
2023-04-24T12:43:54.131Z,15.70
2023-04-24T12:46:22.790Z,15.64
2023-04-24T12:48:51.288Z,15.59
2023-04-24T12:51:19.244Z,15.55
2023-04-24T12:53:47.109Z,15.52
2023-04-24T12:56:15.091Z,15.47
2023-04-24T12:58:43.004Z,15.38
2023-04-24T13:01:11.240Z,15.27
2023-04-24T13:03:39.485Z,15.21
2023-04-24T13:06:07.727Z,15.19
2023-04-24T13:08:35.554Z,15.18
2023-04-24T13:11:03.821Z,15.18
2023-04-24T13:13:32.177Z,15.17
2023-04-24T13:16:00.051Z,15.16
2023-04-24T13:18:27.980Z,15.15
2023-04-24T13:20:56.471Z,15.16
2023-04-24T13:23:24.314Z,15.15
2023-04-24T13:25:52.552Z,15.12
2023-04-24T13:28:20.541Z,15.10
2023-04-24T13:30:52.163Z,15.08
2023-04-24T13:33:20.427Z,15.07
2023-04-24T13:35:48.395Z,15.07
2023-04-24T13:38:16.277Z,15.10
2023-04-24T13:40:44.190Z,15.14
2023-04-24T13:43:12.239Z,15.18
2023-04-24T13:45:40.140Z,15.24
2023-04-24T13:48:09.861Z,15.30
2023-04-24T13:50:38.084Z,15.33
2023-04-24T13:53:06.075Z,15.36
2023-04-24T13:55:34.058Z,15.37
2023-04-24T13:58:02.435Z,15.42
2023-04-24T14:00:30.519Z,15.49
2023-04-24T14:02:58.660Z,15.53
2023-04-24T14:05:26.724Z,15.59
2023-04-24T14:07:54.702Z,15.63
2023-04-24T14:10:22.617Z,15.69
2023-04-24T14:12:50.706Z,15.78
2023-04-24T14:15:18.881Z,15.88
2023-04-24T14:17:46.842Z,15.94
2023-04-24T14:20:15.017Z,15.99
2023-04-24T14:22:43.072Z,16.04
2023-04-24T14:25:11.202Z,16.05
2023-04-24T14:27:39.179Z,16.09
2023-04-24T14:30:07.995Z,16.11
2023-04-24T14:32:36.525Z,16.14
2023-04-24T14:35:05.008Z,16.18
2023-04-24T14:37:32.995Z,16.18
2023-04-24T14:40:17.949Z,16.22
2023-04-24T14:42:48.902Z,16.24
2023-04-24T14:45:16.734Z,16.25
2023-04-24T14:47:45.127Z,16.25
2023-04-24T14:50:13.624Z,16.22
2023-04-24T14:52:41.657Z,16.17
2023-04-24T14:55:09.955Z,16.11
2023-04-24T14:57:37.933Z,16.06
2023-04-24T15:00:11.185Z,16.04
2023-04-24T15:02:42.927Z,16.00
2023-04-24T15:05:11.570Z,15.97
2023-04-24T15:07:39.863Z,15.95
2023-04-24T15:10:08.726Z,15.96
2023-04-24T15:12:36.748Z,15.97
2023-04-24T15:15:05.353Z,16.00
2023-04-24T15:17:33.339Z,16.04
2023-04-24T15:20:02.009Z,16.08
2023-04-24T15:22:30.010Z,16.11
2023-04-24T15:24:57.862Z,16.10
2023-04-24T15:27:26.176Z,16.11
2023-04-24T15:29:54.696Z,16.10
2023-04-24T15:32:22.844Z,16.06
2023-04-24T15:34:56.859Z,16.05
2023-04-24T15:37:33.117Z,16.05
2023-04-24T15:40:01.068Z,16.06
2023-04-24T15:42:28.952Z,16.06
2023-04-24T15:44:56.910Z,16.02
2023-04-24T15:47:25.685Z,15.96
2023-04-24T15:49:54.569Z,15.94
2023-04-24T15:52:22.727Z,15.92
2023-04-24T15:54:50.672Z,15.88
2023-04-24T15:57:18.742Z,15.86
2023-04-24T15:59:46.904Z,15.84
2023-04-24T16:02:21.559Z,15.83
2023-04-24T16:04:51.308Z,15.83
2023-04-24T16:07:19.418Z,15.84
2023-04-24T16:09:47.381Z,15.85
2023-04-24T16:12:15.447Z,15.89
2023-04-24T16:14:43.446Z,15.93
2023-04-24T16:17:11.520Z,15.95
2023-04-24T16:19:39.445Z,15.99
2023-04-24T16:22:07.343Z,16.05
2023-04-24T16:24:35.483Z,16.09
2023-04-24T16:27:03.534Z,16.09
2023-04-24T16:29:32.459Z,16.10
2023-04-24T16:32:00.305Z,16.12
2023-04-24T16:34:28.152Z,16.12
2023-04-24T16:36:56.217Z,16.10
2023-04-24T16:39:24.131Z,16.07
2023-04-24T16:41:52.956Z,16.03
2023-04-24T16:44:20.909Z,15.98
2023-04-24T16:46:49.001Z,15.92
2023-04-24T16:49:16.999Z,15.86
2023-04-24T16:51:45.502Z,15.79
2023-04-24T16:54:13.414Z,15.72
2023-04-24T16:56:41.302Z,15.67
2023-04-24T16:59:09.218Z,15.60
2023-04-24T17:01:37.064Z,15.51
2023-04-24T17:04:05.401Z,15.39
2023-04-24T17:06:33.484Z,15.29
2023-04-24T17:09:01.451Z,15.19
2023-04-24T17:11:31.216Z,15.13
2023-04-24T17:14:01.848Z,15.04
2023-04-24T17:16:29.775Z,14.93
2023-04-24T17:18:57.740Z,14.79
2023-04-24T17:21:26.616Z,14.69
2023-04-24T17:23:54.519Z,14.57
2023-04-24T17:26:22.390Z,14.45
2023-04-24T17:28:50.684Z,14.35
2023-04-24T17:31:18.952Z,14.26
2023-04-24T17:33:47.221Z,14.17
2023-04-24T17:36:15.761Z,14.08
2023-04-24T17:38:44.188Z,13.97
2023-04-24T17:41:12.134Z,13.87
2023-04-24T17:43:40.059Z,13.80
2023-04-24T17:46:08.124Z,13.74
2023-04-24T17:48:36.027Z,13.68
2023-04-24T17:51:04.056Z,13.63
2023-04-24T17:53:31.929Z,13.56
2023-04-24T17:56:03.449Z,13.49
2023-04-24T17:58:31.715Z,13.43
2023-04-24T18:00:59.750Z,13.39
2023-04-24T18:03:27.884Z,13.35
2023-04-24T18:05:55.999Z,13.30
2023-04-24T18:08:23.948Z,13.24
2023-04-24T18:10:51.967Z,13.18
2023-04-24T18:13:19.991Z,13.14
2023-04-24T18:15:47.881Z,13.07
2023-04-24T18:18:17.752Z,13.01
2023-04-24T18:20:46.338Z,12.97
2023-04-24T18:23:14.248Z,12.90
2023-04-24T18:25:42.154Z,12.87
2023-04-24T18:28:10.361Z,12.86
2023-04-24T18:30:38.373Z,12.84
2023-04-24T18:33:06.381Z,12.82
2023-04-24T18:35:34.291Z,12.80
2023-04-24T18:38:02.243Z,12.78
2023-04-24T18:40:30.210Z,12.74
2023-04-24T18:42:58.161Z,12.72
2023-04-24T18:45:26.234Z,12.70
2023-04-24T18:47:54.353Z,12.67
2023-04-24T18:50:22.409Z,12.63
2023-04-24T18:52:50.336Z,12.60
2023-04-24T18:55:18.349Z,12.57
2023-04-24T18:57:46.325Z,12.54
2023-04-24T19:00:14.542Z,12.51
2023-04-24T19:02:43.231Z,12.48
2023-04-24T19:05:12.047Z,12.45
2023-04-24T19:07:42.216Z,12.43
2023-04-24T19:10:10.936Z,12.40
2023-04-24T19:12:39.235Z,12.34
2023-04-24T19:15:11.580Z,12.31
2023-04-24T19:17:40.283Z,12.29
2023-04-24T19:20:08.771Z,12.26
2023-04-24T19:22:37.060Z,12.25
2023-04-24T19:25:05.614Z,12.25
2023-04-24T19:27:33.657Z,12.24
2023-04-24T19:30:01.698Z,12.23
2023-04-24T19:32:29.894Z,12.24
2023-04-24T19:34:57.867Z,12.24
2023-04-24T19:37:25.856Z,12.23
2023-04-24T19:39:53.892Z,12.22
2023-04-24T19:42:31.819Z,12.21
2023-04-24T19:45:11.824Z,12.19
2023-04-24T19:47:40.296Z,12.18
2023-04-24T19:50:09.573Z,12.16
2023-04-24T19:52:37.590Z,12.13
2023-04-24T19:55:05.871Z,12.10
2023-04-24T19:57:33.914Z,12.08
2023-04-24T20:00:01.868Z,12.07
2023-04-24T20:02:31.126Z,12.06
2023-04-24T20:04:59.256Z,12.06
2023-04-24T20:07:27.201Z,12.07
2023-04-24T20:09:55.110Z,12.23
2023-04-24T20:12:23.223Z,12.41
2023-04-24T20:14:51.354Z,12.60
2023-04-24T20:17:19.188Z,12.64
2023-04-24T20:19:47.179Z,12.61
2023-04-24T20:22:15.468Z,12.58
2023-04-24T20:24:43.990Z,12.56
2023-04-24T20:27:13.183Z,12.52
2023-04-24T20:29:41.258Z,12.48
2023-04-24T20:32:09.211Z,12.45
2023-04-24T20:34:37.419Z,12.42
2023-04-24T20:37:06.294Z,12.37
2023-04-24T20:39:34.100Z,12.30
2023-04-24T20:42:01.996Z,12.24
2023-04-24T20:44:29.891Z,12.18
2023-04-24T20:46:57.797Z,12.10
2023-04-24T20:49:25.762Z,12.03
2023-04-24T20:51:53.645Z,11.95
2023-04-24T20:54:21.643Z,11.88
2023-04-24T20:56:49.525Z,11.81
2023-04-24T20:59:17.486Z,11.75
2023-04-24T21:01:45.521Z,11.70
2023-04-24T21:04:13.452Z,11.66
2023-04-24T21:06:41.398Z,11.64
2023-04-24T21:09:09.787Z,11.62
2023-04-24T21:11:37.715Z,11.60
2023-04-24T21:14:05.744Z,11.56
2023-04-24T21:16:33.949Z,11.52
2023-04-24T21:19:02.300Z,11.48
2023-04-24T21:21:30.801Z,11.44
2023-04-24T21:23:58.658Z,11.41
2023-04-24T21:26:26.481Z,11.36
2023-04-24T21:28:54.316Z,11.33
2023-04-24T21:31:22.237Z,11.29
2023-04-24T21:33:51.346Z,11.26
2023-04-24T21:36:19.613Z,11.20
2023-04-24T21:38:47.490Z,11.15
2023-04-24T21:41:15.803Z,11.10
2023-04-24T21:43:45.705Z,11.05
2023-04-24T21:46:14.777Z,11.00
2023-04-24T21:48:42.672Z,10.95
2023-04-24T21:51:10.790Z,10.91
2023-04-24T21:53:38.722Z,10.87
2023-04-24T21:56:06.770Z,10.83
2023-04-24T21:58:35.633Z,10.79
2023-04-24T22:01:03.623Z,10.76
2023-04-24T22:03:32.049Z,10.73
2023-04-24T22:06:00.195Z,10.69
2023-04-24T22:08:28.143Z,10.66
2023-04-24T22:10:56.583Z,10.63
2023-04-24T22:13:24.494Z,10.60
2023-04-24T22:15:52.556Z,10.56
2023-04-24T22:18:20.619Z,10.53
2023-04-24T22:20:48.607Z,10.49
2023-04-24T22:23:16.555Z,10.46
2023-04-24T22:25:44.521Z,10.44
2023-04-24T22:28:12.416Z,10.42
2023-04-24T22:30:40.365Z,10.40
2023-04-24T22:33:08.321Z,10.38
2023-04-24T22:35:37.480Z,10.36
2023-04-24T22:38:05.597Z,10.34
2023-04-24T22:40:35.034Z,10.33
2023-04-24T22:43:03.060Z,10.31
2023-04-24T22:45:30.936Z,10.30
2023-04-24T22:47:58.782Z,10.30
2023-04-24T22:50:27.021Z,10.29
2023-04-24T22:52:55.049Z,10.28
2023-04-24T22:55:22.938Z,10.27
2023-04-24T22:57:51.226Z,10.26
2023-04-24T23:00:19.629Z,10.24
2023-04-24T23:02:47.709Z,10.23
2023-04-24T23:05:15.829Z,10.21
2023-04-24T23:07:43.790Z,10.20
2023-04-24T23:10:11.689Z,10.21
2023-04-24T23:12:39.739Z,10.20
2023-04-24T23:15:08.651Z,10.19
2023-04-24T23:17:36.570Z,10.17
2023-04-24T23:20:05.297Z,10.16
2023-04-24T23:22:33.658Z,10.14
2023-04-24T23:25:01.593Z,10.11
2023-04-24T23:27:29.461Z,10.08
2023-04-24T23:29:57.320Z,10.06
2023-04-24T23:32:25.877Z,10.03
2023-04-24T23:34:53.749Z,10.01
2023-04-24T23:37:22.019Z,9.98
2023-04-24T23:39:49.991Z,9.95
2023-04-24T23:42:17.808Z,9.92
2023-04-24T23:44:45.845Z,9.89
2023-04-24T23:47:13.810Z,9.86
2023-04-24T23:49:41.771Z,9.85
2023-04-24T23:52:09.628Z,9.82
2023-04-24T23:54:37.566Z,9.79
2023-04-24T23:57:05.616Z,9.77
2023-04-24T23:59:33.803Z,9.76
